Daisinmaru No.11 — JK5352 — position and weather

sailwx.info

Track history (hours):
 
Tides and Currents Weather Stations Pressure Air Temp Water Temp Dewpoint Dewpoint Depression Visibility Wind Speed Wind Dir Waves Ship Positions

Daisinmaru No.11

Last reported at 2017-Sep-30 01:07 UTC. Time now 2017-Oct-17 16:39 UTC.
Position N 35°34' E 139°47'.
Warning: this ship's position is 17 days out of date.

Length 52 m.

MMSI: 431000667.

Date/timePositionNaut miles runAvg speedWind from/ knotsBaromVisibWave heightAir tempDewpointWater temp
2017-Sep-30 01:07N 35°34' E 139°47'0 0.4
2017-Sep-30 00:59N 35°34' E 139°48'5 9.6
2017-Sep-30 00:26N 35°32' E 139°53'510.7
2017-Sep-29 23:58N 35°29' E 139°58'  
2017-Sep-26 03:15N 35°34' E 139°48'2 2.3
2017-Sep-26 02:36N 35°35' E 139°46'0 0.0
2017-Sep-26 02:26N 35°35' E 139°46'0 0.0
2017-Sep-26 00:14N 35°35' E 139°46'  
2017-Sep-22 01:00N 35°35' E 139°46'0 0.0
2017-Sep-22 00:09N 35°35' E 139°46'0 0.0
2017-Sep-21 23:59N 35°35' E 139°46'0 0.0
2017-Sep-21 23:04N 35°35' E 139°46'0 0.0
2017-Sep-21 23:00N 35°35' E 139°46'5 9.2
2017-Sep-21 22:30N 35°33' E 139°51'2 0.0
2017-Sep-20 02:59N 35°33' E 139°50'3 5.9
2017-Sep-20 02:30N 35°35' E 139°46'0 0.0
2017-Sep-20 01:37N 35°35' E 139°46'0 0.0
2017-Sep-20 01:30N 35°35' E 139°46'  
Track history (hours):
 
Tides and Currents Weather Stations Pressure Air Temp Water Temp Dewpoint Dewpoint Depression Visibility Wind Speed Wind Dir Waves Ship Positions

Daisinmaru No.11

Last reported at 2017-Sep-30 01:07 UTC. Time now 2017-Oct-17 16:39 UTC.
Position N 35°34' E 139°47'.
Warning: this ship's position is 17 days out of date.

Length 52 m.

MMSI: 431000667.

Date/timePositionNaut miles runAvg speedWind from/ knotsBaromVisibWave heightAir tempDewpointWater temp
2017-Sep-30 01:07N 35°34' E 139°47'0 0.4
2017-Sep-30 00:59N 35°34' E 139°48'5 9.6
2017-Sep-30 00:26N 35°32' E 139°53'510.7
2017-Sep-29 23:58N 35°29' E 139°58'  
2017-Sep-26 03:15N 35°34' E 139°48'2 2.3
2017-Sep-26 02:36N 35°35' E 139°46'0 0.0
2017-Sep-26 02:26N 35°35' E 139°46'0 0.0
2017-Sep-26 00:14N 35°35' E 139°46'  
2017-Sep-22 01:00N 35°35' E 139°46'0 0.0
2017-Sep-22 00:09N 35°35' E 139°46'0 0.0
2017-Sep-21 23:59N 35°35' E 139°46'0 0.0
2017-Sep-21 23:04N 35°35' E 139°46'0 0.0
2017-Sep-21 23:00N 35°35' E 139°46'5 9.2
2017-Sep-21 22:30N 35°33' E 139°51'2 0.0
2017-Sep-20 02:59N 35°33' E 139°50'3 5.9
2017-Sep-20 02:30N 35°35' E 139°46'0 0.0
2017-Sep-20 01:37N 35°35' E 139°46'0 0.0
2017-Sep-20 01:30N 35°35' E 139°46'  

Dump ship's entire track history